Time;durP1;ratioP1;P1;durP2;ratioP2;P2;SDS_P1;SDS_P2;PMS_P1;PMS_P2;Temp;Humidity;BMP_temperature;BMP_pressure;BME280_temperature;BME280_humidity;BME280_pressure;Samples;Min_cycle;Max_cycle;Signal;HPM_P1;HPM_P2
2023/04/08 00:01:00;;;;;;;23.20;16.40;;;;;;;7.77;79.29;97217.19;5068584;28;20209;-78
2023/04/08 00:03:27;;;;;;;24.50;17.47;;;;;;;7.81;79.03;97218.78;5069123;28;20214;-85
2023/04/08 00:05:54;;;;;;;22.80;16.67;;;;;;;7.90;78.86;97209.91;5068869;28;20241;-81
2023/04/08 00:08:21;;;;;;;24.67;16.27;;;;;;;8.01;78.36;97213.84;5068868;28;20195;-83
2023/04/08 00:10:48;;;;;;;23.37;17.07;;;;;;;7.97;78.32;97201.94;5068446;28;20688;-81
2023/04/08 00:13:15;;;;;;;21.77;16.37;;;;;;;7.97;78.11;97203.66;5068417;28;20212;-77
2023/04/08 00:15:42;;;;;;;21.77;16.37;;;;;;;8.15;77.19;97198.75;5068557;28;20196;-79
2023/04/08 00:18:09;;;;;;;21.13;15.50;;;;;;;8.32;75.75;97218.00;5049968;28;20231;-78
2023/04/08 00:20:36;;;;;;;23.27;15.27;;;;;;;8.47;76.14;97223.47;5068682;28;20668;-75
2023/04/08 00:23:03;;;;;;;19.63;14.73;;;;;;;8.52;76.89;97207.81;5068415;28;20185;-79
2023/04/08 00:25:30;;;;;;;22.33;16.27;;;;;;;8.54;76.67;97201.72;5070572;28;20661;-84
2023/04/08 00:27:57;;;;;;;20.07;14.97;;;;;;;8.67;76.43;97217.63;5068311;28;20262;-80
2023/04/08 00:30:26;;;;;;;20.40;14.87;;;;;;;8.70;74.90;97217.50;5068128;28;20274;-83
2023/04/08 00:32:53;;;;;;;19.80;15.40;;;;;;;8.78;74.52;97218.91;5068618;28;20246;-86
2023/04/08 00:35:20;;;;;;;21.20;15.67;;;;;;;8.83;74.56;97216.16;5068657;28;20204;-82
2023/04/08 00:37:48;;;;;;;23.07;14.77;;;;;;;8.69;74.13;97210.66;5050732;28;20232;-84
2023/04/08 00:40:15;;;;;;;20.83;14.90;;;;;;;8.79;74.65;97212.88;5067875;28;20205;-85
2023/04/08 00:42:42;;;;;;;19.73;14.77;;;;;;;8.87;73.33;97223.75;5071984;28;20195;-84
2023/04/08 00:45:10;;;;;;;19.17;15.50;;;;;;;8.91;71.80;97227.06;5064441;28;20194;-73
2023/04/08 00:47:38;;;;;;;20.27;15.17;;;;;;;8.90;72.29;97226.22;5070970;28;20207;-81
2023/04/08 00:50:08;;;;;;;18.97;14.40;;;;;;;8.79;72.71;97222.34;5049827;28;20714;-79
2023/04/08 00:52:35;;;;;;;17.97;14.13;;;;;;;8.86;70.82;97218.66;5049649;28;20201;-82
2023/04/08 00:55:02;;;;;;;19.70;14.60;;;;;;;8.82;70.47;97217.09;5050826;28;20188;-82
2023/04/08 00:57:29;;;;;;;19.50;13.80;;;;;;;8.78;70.77;97220.63;5067403;28;21140;-84
2023/04/08 00:59:57;;;;;;;17.47;14.13;;;;;;;8.79;71.07;97227.50;5067338;28;20239;-83
2023/04/08 01:02:35;;;;;;;23.00;14.40;;;;;;;8.81;70.63;97225.72;5049518;28;20188;-85
2023/04/08 01:05:12;;;;;;;21.13;14.00;;;;;;;8.84;71.12;97225.63;5049763;28;20185;-85
2023/04/08 01:07:45;;;;;;;17.07;12.83;;;;;;;8.72;70.30;97221.72;5067604;28;20757;-84
2023/04/08 01:10:18;;;;;;;17.20;12.93;;;;;;;8.80;70.90;97222.28;5049262;28;20621;-83
2023/04/08 01:12:53;;;;;;;18.03;13.03;;;;;;;8.70;71.45;97218.34;5067768;28;20728;-82
2023/04/08 01:15:21;;;;;;;19.40;13.20;;;;;;;8.67;71.60;97217.63;5067092;28;20196;-82
2023/04/08 01:17:51;;;;;;;16.87;13.97;;;;;;;8.47;71.71;97207.16;5067366;28;20256;-80
2023/04/08 01:20:19;;;;;;;17.10;12.73;;;;;;;8.52;72.15;97218.16;5067265;28;20258;-80
2023/04/08 01:23:16;;;;;;;18.07;14.10;;;;;;;8.58;72.87;97223.09;5066888;28;20221;-83
2023/04/08 01:25:53;;;;;;;17.23;13.33;;;;;;;8.43;73.56;97214.13;5067682;28;20193;-82
2023/04/08 01:28:23;;;;;;;20.37;13.83;;;;;;;8.43;74.04;97221.88;5049224;28;20664;-83
2023/04/08 01:30:54;;;;;;;19.17;14.23;;;;;;;8.32;75.10;97218.84;5050589;28;20602;-82
2023/04/08 01:33:21;;;;;;;21.20;14.40;;;;;;;8.24;75.27;97213.06;5067516;28;20201;-82
2023/04/08 01:35:50;;;;;;;20.07;14.53;;;;;;;8.08;75.65;97202.41;5049625;28;20740;-81
2023/04/08 01:38:19;;;;;;;19.60;14.33;;;;;;;8.02;75.76;97192.31;5067651;28;20250;-83
2023/04/08 01:40:48;;;;;;;21.70;14.70;;;;;;;8.15;75.12;97209.06;5066705;28;20732;-84
2023/04/08 01:43:16;;;;;;;18.83;14.57;;;;;;;8.20;75.10;97214.88;5049274;28;20684;-81
2023/04/08 01:45:44;;;;;;;21.37;14.43;;;;;;;8.26;75.81;97220.78;5066951;28;20189;-85
2023/04/08 01:48:13;;;;;;;22.83;14.63;;;;;;;8.29;74.88;97220.66;5067465;28;20898;-82
2023/04/08 01:50:44;;;;;;;20.53;14.60;;;;;;;8.26;76.15;97226.78;5048896;28;20700;-80
2023/04/08 01:53:12;;;;;;;19.50;14.43;;;;;;;8.27;75.78;97214.72;5048926;28;20189;-85
2023/04/08 01:55:41;;;;;;;18.67;13.53;;;;;;;8.24;75.34;97223.41;5033188;28;20580;-82
2023/04/08 01:58:13;;;;;;;21.70;16.30;;;;;;;8.16;76.19;97227.97;5066648;28;20192;-86
2023/04/08 02:00:42;;;;;;;18.17;14.03;;;;;;;8.09;76.46;97227.31;5049209;28;20223;-84
2023/04/08 02:03:16;;;;;;;19.77;15.10;;;;;;;8.21;77.32;97237.22;5067906;28;20571;-85
2023/04/08 02:05:45;;;;;;;19.90;14.30;;;;;;;8.18;76.85;97229.56;5049680;28;20196;-84
2023/04/08 02:08:12;;;;;;;17.20;13.53;;;;;;;8.26;76.65;97234.53;5056127;28;20269;-86
2023/04/08 02:10:39;;;;;;;17.17;13.07;;;;;;;8.17;77.38;97243.38;5051974;28;20189;-86
2023/04/08 02:13:07;;;;;;;19.43;13.47;;;;;;;8.28;77.34;97234.47;5053112;28;20192;-85
2023/04/08 02:15:36;;;;;;;19.03;13.60;;;;;;;8.23;76.99;97238.03;5070605;28;20185;-83
2023/04/08 02:18:16;;;;;;;18.63;13.93;;;;;;;8.23;78.13;97243.19;5071315;28;20196;-80
2023/04/08 02:20:49;;;;;;;18.20;13.50;;;;;;;8.19;77.38;97235.59;5070380;28;20307;-85
2023/04/08 02:23:23;;;;;;;17.90;13.67;;;;;;;8.19;78.42;97231.28;5052597;28;20276;-86
2023/04/08 02:25:54;;;;;;;18.07;13.63;;;;;;;8.16;77.87;97231.38;5070698;28;20193;-86
2023/04/08 02:28:25;;;;;;;19.50;13.97;;;;;;;8.26;78.15;97231.97;5052425;28;20177;-78
2023/04/08 02:30:54;;;;;;;20.13;15.07;;;;;;;8.24;78.46;97234.53;5053118;28;20651;-83
2023/04/08 02:33:22;;;;;;;18.97;14.30;;;;;;;7.98;78.87;97231.97;5052252;28;20193;-79
2023/04/08 02:35:53;;;;;;;21.03;14.17;;;;;;;7.97;78.05;97242.34;5052718;28;20187;-83
2023/04/08 02:38:22;;;;;;;20.03;14.30;;;;;;;7.82;78.50;97225.63;5052673;28;20196;-85
2023/04/08 02:40:50;;;;;;;23.37;14.87;;;;;;;7.95;78.46;97250.16;5052178;28;20213;-84
2023/04/08 02:43:17;;;;;;;20.80;14.23;;;;;;;7.84;79.25;97244.47;5070562;28;20195;-78
2023/04/08 02:45:44;;;;;;;20.00;14.63;;;;;;;7.93;78.86;97236.44;5070059;28;20235;-84
2023/04/08 02:48:11;;;;;;;21.70;15.77;;;;;;;7.73;80.60;97245.72;5061175;28;20185;-73
2023/04/08 02:50:39;;;;;;;21.57;14.87;;;;;;;7.87;79.58;97239.19;5058087;28;20185;-75
2023/04/08 02:53:08;;;;;;;20.17;16.70;;;;;;;7.84;79.06;97248.78;5070235;28;20189;-82
2023/04/08 02:55:35;;;;;;;24.37;17.23;;;;;;;7.80;79.05;97248.03;5052259;28;20197;-81
2023/04/08 02:58:02;;;;;;;24.10;17.87;;;;;;;7.87;79.56;97257.25;5052358;28;20188;-82
2023/04/08 03:00:29;;;;;;;25.00;16.93;;;;;;;7.48;79.46;97214.69;5070591;28;20246;-83
2023/04/08 03:02:56;;;;;;;24.47;16.50;;;;;;;7.61;80.88;97251.22;5051360;28;20291;-81
2023/04/08 03:05:25;;;;;;;20.43;14.77;;;;;;;7.54;80.29;97258.31;5070451;28;20181;-75
2023/04/08 03:07:52;;;;;;;20.53;15.27;;;;;;;7.62;81.36;97261.50;5069719;28;20242;-82
2023/04/08 03:10:19;;;;;;;20.27;14.57;;;;;;;7.62;81.22;97243.47;5052015;28;20185;-79
2023/04/08 03:12:46;;;;;;;22.80;16.53;;;;;;;7.78;79.73;97260.13;5069451;28;20197;-76
2023/04/08 03:15:13;;;;;;;21.97;15.77;;;;;;;7.84;79.66;97262.53;5069630;28;20191;-84
2023/04/08 03:17:40;;;;;;;30.87;19.53;;;;;;;7.86;80.53;97254.72;5070056;28;20663;-76
2023/04/08 03:20:08;;;;;;;31.60;19.53;;;;;;;7.72;80.11;97254.31;5068996;28;20185;-76
2023/04/08 03:22:35;;;;;;;24.47;16.83;;;;;;;7.81;80.29;97269.50;5069527;28;20309;-80
2023/04/08 03:25:03;;;;;;;32.30;19.30;;;;;;;7.77;80.91;97262.78;5069092;28;20235;-77
2023/04/08 03:27:30;;;;;;;28.03;18.20;;;;;;;7.88;81.12;97261.53;5069616;28;20205;-81
2023/04/08 03:29:57;;;;;;;26.47;17.20;;;;;;;7.83;80.42;97275.47;5084104;28;20220;-78
2023/04/08 03:32:24;;;;;;;23.50;16.40;;;;;;;7.77;80.38;97271.31;5069155;28;20196;-78
2023/04/08 03:34:52;;;;;;;22.97;14.70;;;;;;;7.80;80.07;97273.81;5069374;28;20196;-74
2023/04/08 03:37:19;;;;;;;25.80;16.10;;;;;;;7.82;80.12;97260.88;5068793;28;20224;-76
2023/04/08 03:39:46;;;;;;;20.90;14.27;;;;;;;7.81;80.08;97279.81;5070134;28;20193;-80
2023/04/08 03:42:13;;;;;;;22.20;15.47;;;;;;;7.77;80.96;97289.38;5068598;28;20734;-80
2023/04/08 03:44:40;;;;;;;20.80;15.03;;;;;;;7.80;80.51;97294.44;5051165;28;20201;-83
2023/04/08 03:47:07;;;;;;;20.37;15.07;;;;;;;7.88;80.64;97294.19;5068640;28;20291;-77
2023/04/08 03:49:34;;;;;;;20.67;14.27;;;;;;;7.82;80.67;97291.81;5068592;28;20193;-78
2023/04/08 03:52:01;;;;;;;20.13;15.47;;;;;;;7.79;80.03;97300.47;5069048;28;20761;-77
2023/04/08 03:54:28;;;;;;;20.33;15.17;;;;;;;7.77;81.14;97291.13;5068830;28;20194;-74
2023/04/08 03:56:55;;;;;;;23.00;14.90;;;;;;;7.72;79.58;97293.84;5069582;28;20193;-80
2023/04/08 03:59:22;;;;;;;20.63;14.90;;;;;;;7.62;80.80;97284.69;5050291;28;20184;-84
2023/04/08 04:01:50;;;;;;;19.87;14.60;;;;;;;7.63;80.56;97299.25;5068980;28;20248;-79
2023/04/08 04:04:17;;;;;;;20.30;14.90;;;;;;;7.61;80.85;97303.63;5069066;28;20184;-82
2023/04/08 04:06:44;;;;;;;23.83;16.90;;;;;;;7.61;80.48;97297.59;5068468;28;20254;-81
2023/04/08 04:09:11;;;;;;;23.23;15.47;;;;;;;7.55;80.76;97293.50;5068900;28;20661;-85
2023/04/08 04:11:38;;;;;;;24.33;16.00;;;;;;;7.53;80.39;97279.81;5050202;28;20200;-85
2023/04/08 04:14:05;;;;;;;21.03;15.20;;;;;;;7.66;81.00;97280.28;5069147;28;20209;-84
2023/04/08 04:16:32;;;;;;;23.03;16.33;;;;;;;7.86;80.71;97288.25;5076236;28;20192;-84
2023/04/08 04:18:59;;;;;;;25.80;17.27;;;;;;;7.93;79.81;97300.06;5088933;28;20198;-82
2023/04/08 04:21:26;;;;;;;24.13;16.53;;;;;;;7.85;79.73;97291.72;5103323;28;20232;-77
2023/04/08 04:23:53;;;;;;;25.97;16.97;;;;;;;7.88;79.64;97291.63;5088583;28;20184;-82
2023/04/08 04:26:20;;;;;;;25.23;18.33;;;;;;;7.85;80.08;97276.25;5070149;28;20594;-83
2023/04/08 04:28:47;;;;;;;27.37;19.03;;;;;;;7.56;81.33;97282.31;5088229;28;20717;-80
2023/04/08 04:31:20;;;;;;;29.73;18.07;;;;;;;7.65;81.20;97289.75;5088203;28;20185;-79
2023/04/08 04:33:48;;;;;;;24.87;18.10;;;;;;;7.54;82.41;97271.22;5086944;28;20193;-81
2023/04/08 04:36:15;;;;;;;27.03;18.90;;;;;;;7.60;81.61;97281.31;5070462;28;20187;-81
2023/04/08 04:38:43;;;;;;;28.77;18.97;;;;;;;7.55;81.70;97278.03;5070063;28;20199;-80
2023/04/08 04:41:10;;;;;;;27.60;18.63;;;;;;;7.66;82.09;97283.72;5088398;28;20192;-73
2023/04/08 04:43:37;;;;;;;29.60;21.47;;;;;;;7.88;81.65;97292.47;5088734;28;20314;-77
2023/04/08 04:46:07;;;;;;;30.33;19.13;;;;;;;7.97;80.21;97271.56;5070180;28;20192;-85
2023/04/08 04:48:35;;;;;;;25.23;17.17;;;;;;;8.08;79.92;97281.50;5088371;28;20192;-85
2023/04/08 04:51:02;;;;;;;32.03;19.33;;;;;;;7.75;80.09;97267.94;5087576;28;20303;-82
2023/04/08 04:53:30;;;;;;;21.63;15.13;;;;;;;7.91;79.54;97276.88;5088278;28;20212;-83
2023/04/08 04:56:00;;;;;;;25.00;18.00;;;;;;;8.01;79.95;97293.78;5088893;28;20292;-82
2023/04/08 04:58:27;;;;;;;22.93;15.57;;;;;;;8.06;78.77;97281.56;5088056;28;20283;-82
2023/04/08 05:00:54;;;;;;;22.07;14.90;;;;;;;8.15;79.14;97293.34;5088148;28;20180;-77
2023/04/08 05:03:21;;;;;;;28.97;17.27;;;;;;;8.05;79.17;97279.91;5069611;28;20772;-86
2023/04/08 05:05:52;;;;;;;28.03;17.30;;;;;;;8.22;78.85;97287.91;5088488;28;20192;-86
2023/04/08 05:08:20;;;;;;;28.57;16.67;;;;;;;8.13;78.55;97283.06;5087815;28;20695;-83
2023/04/08 05:10:49;;;;;;;26.30;16.13;;;;;;;8.19;78.22;97295.78;5089922;28;20193;-82
2023/04/08 05:13:17;;;;;;;29.70;17.07;;;;;;;8.05;79.42;97299.69;5088656;28;20781;-84
2023/04/08 05:15:47;;;;;;;26.17;16.97;;;;;;;8.00;78.40;97275.75;5088107;28;20652;-79
2023/04/08 05:18:14;;;;;;;28.20;16.80;;;;;;;8.10;78.98;97296.06;5087658;28;20196;-75
2023/04/08 05:20:41;;;;;;;25.10;15.33;;;;;;;8.25;78.22;97294.75;5085639;28;20200;-79
2023/04/08 05:23:08;;;;;;;26.53;16.23;;;;;;;8.10;78.54;97272.84;5088144;28;20243;-84
2023/04/08 05:25:35;;;;;;;25.20;17.53;;;;;;;8.09;78.75;97266.00;5069288;28;20787;-85
2023/04/08 05:28:03;;;;;;;24.43;16.33;;;;;;;8.32;77.87;97297.97;5088115;28;20690;-85
2023/04/08 05:30:30;;;;;;;25.63;15.63;;;;;;;8.23;77.44;97294.78;5087054;28;20193;-80
2023/04/08 05:32:58;;;;;;;24.57;16.90;;;;;;;8.24;77.76;97299.03;5087392;28;20627;-83
2023/04/08 05:35:27;;;;;;;28.10;17.93;;;;;;;8.27;78.23;97298.13;5068432;28;20196;-83
2023/04/08 05:37:54;;;;;;;28.13;17.17;;;;;;;8.17;78.28;97287.25;5086919;28;20192;-82
2023/04/08 05:40:21;;;;;;;23.80;17.17;;;;;;;8.33;77.94;97294.50;5069210;28;20628;-84
2023/04/08 05:42:48;;;;;;;24.77;17.23;;;;;;;8.18;78.74;97294.06;5086327;28;20769;-84
2023/04/08 05:45:16;;;;;;;26.03;17.53;;;;;;;8.18;79.13;97283.75;5089721;28;20238;-84
2023/04/08 05:47:43;;;;;;;26.70;18.23;;;;;;;8.34;78.14;97301.34;5084679;28;20199;-82
2023/04/08 05:50:10;;;;;;;24.83;17.93;;;;;;;8.45;78.11;97302.66;5087308;28;20234;-76
2023/04/08 05:52:42;;;;;;;24.90;16.50;;;;;;;8.45;77.70;97304.44;5086921;28;20195;-83
2023/04/08 05:55:13;;;;;;;33.13;16.27;;;;;;;8.46;78.22;97306.09;5068563;28;20193;-83
2023/04/08 05:57:40;;;;;;;22.67;16.00;;;;;;;8.39;78.74;97304.63;5068891;28;20210;-82
2023/04/08 06:00:09;;;;;;;29.67;17.67;;;;;;;8.58;77.04;97305.69;5086209;28;20702;-80
2023/04/08 06:02:37;;;;;;;28.67;16.97;;;;;;;8.67;76.56;97301.06;5087240;28;21156;-81
2023/04/08 06:05:05;;;;;;;29.20;17.10;;;;;;;8.46;76.90;97272.56;5086218;28;20181;-80
2023/04/08 06:07:33;;;;;;;22.57;15.63;;;;;;;8.69;76.35;97311.34;5086592;28;20185;-83
2023/04/08 06:10:00;;;;;;;22.60;16.33;;;;;;;8.52;76.27;97295.56;5051606;28;20207;-81
2023/04/08 06:12:29;;;;;;;25.17;15.97;;;;;;;8.68;76.25;97304.47;5086635;28;20672;-82
2023/04/08 06:14:56;;;;;;;26.37;17.27;;;;;;;8.69;76.43;97303.59;5051840;28;20187;-82
2023/04/08 06:17:23;;;;;;;29.87;16.47;;;;;;;8.93;75.51;97313.06;5085952;28;20193;-80
2023/04/08 06:19:51;;;;;;;22.43;16.17;;;;;;;9.09;74.61;97314.22;5087201;28;21038;-81
2023/04/08 06:22:18;;;;;;;29.97;18.23;;;;;;;9.13;74.26;97320.13;5085987;28;20683;-81
2023/04/08 06:24:46;;;;;;;32.83;18.43;;;;;;;9.35;74.84;97331.38;5086856;28;20188;-81
2023/04/08 06:27:14;;;;;;;31.60;18.50;;;;;;;9.42;73.65;97323.34;5086161;28;20253;-79
2023/04/08 06:29:41;;;;;;;27.33;16.90;;;;;;;9.34;73.73;97324.50;5081265;28;20197;-79
2023/04/08 06:32:10;;;;;;;30.87;17.87;;;;;;;9.34;73.29;97324.50;5058188;28;20228;-82
2023/04/08 06:34:37;;;;;;;30.10;17.67;;;;;;;9.28;72.87;97328.16;5086198;28;20188;-80
2023/04/08 06:37:05;;;;;;;28.77;19.67;;;;;;;9.25;73.07;97324.88;5078109;28;20193;-79
2023/04/08 06:39:32;;;;;;;32.53;19.40;;;;;;;9.30;72.99;97330.69;5076808;28;20193;-82
2023/04/08 06:42:00;;;;;;;31.37;20.03;;;;;;;8.96;72.89;97282.81;5084195;28;20228;-80
2023/04/08 06:44:53;;;;;;;24.70;16.30;;;;;;;9.25;72.14;97327.44;5063173;28;20228;-82
2023/04/08 06:47:20;;;;;;;29.90;18.07;;;;;;;9.37;71.92;97320.09;5085891;28;20193;-82
2023/04/08 06:49:47;;;;;;;30.13;17.67;;;;;;;9.46;72.12;97339.59;5067584;28;20192;-82
2023/04/08 06:52:14;;;;;;;29.57;18.77;;;;;;;9.44;72.14;97342.22;5085629;28;20192;-84
2023/04/08 06:54:41;;;;;;;30.60;17.13;;;;;;;9.44;72.00;97337.06;5086393;28;20181;-82
2023/04/08 06:57:08;;;;;;;39.87;18.07;;;;;;;9.51;71.49;97343.69;5087368;28;20205;-81
2023/04/08 06:59:35;;;;;;;30.83;17.27;;;;;;;9.50;71.13;97347.16;5101279;28;20637;-82
2023/04/08 07:02:02;;;;;;;27.03;16.83;;;;;;;9.33;72.11;97331.44;5093057;28;20220;-81
2023/04/08 07:04:30;;;;;;;23.70;15.93;;;;;;;9.15;72.14;97329.50;5071845;28;20257;-82
2023/04/08 07:06:57;;;;;;;26.13;16.70;;;;;;;9.18;72.83;97350.06;5089837;28;20216;-80
2023/04/08 07:09:24;;;;;;;29.23;18.70;;;;;;;9.35;72.46;97352.91;5089451;28;20227;-85
2023/04/08 07:11:51;;;;;;;31.17;17.23;;;;;;;9.38;72.09;97350.19;5091071;28;20216;-88
2023/04/08 07:14:19;;;;;;;34.37;20.87;;;;;;;9.47;72.24;97367.97;5095864;28;20195;-86
2023/04/08 07:16:46;;;;;;;26.30;18.47;;;;;;;9.72;71.15;97353.25;5095533;28;20197;-83
2023/04/08 07:19:13;;;;;;;27.77;18.27;;;;;;;9.74;70.49;97356.63;5091233;28;20269;-84
2023/04/08 07:21:40;;;;;;;30.20;18.90;;;;;;;9.87;70.16;97363.91;5090431;28;20221;-82
2023/04/08 07:24:07;;;;;;;27.33;18.03;;;;;;;10.05;70.12;97360.63;5090296;28;20188;-84
2023/04/08 07:26:34;;;;;;;29.20;17.47;;;;;;;10.16;69.36;97351.56;5090144;28;20184;-81
2023/04/08 07:29:05;;;;;;;29.73;18.30;;;;;;;10.30;68.80;97363.97;5087087;28;20195;-80
2023/04/08 07:31:33;;;;;;;31.97;19.67;;;;;;;10.32;69.01;97349.22;5048410;28;20709;-82
2023/04/08 07:34:02;;;;;;;32.87;18.87;;;;;;;10.18;69.45;97357.53;5050395;28;20683;-81
2023/04/08 07:36:30;;;;;;;39.10;20.83;;;;;;;10.10;69.72;97359.56;5068367;28;20179;-82
2023/04/08 07:38:57;;;;;;;33.97;19.37;;;;;;;9.61;69.43;97280.41;5068514;28;20201;-81
2023/04/08 07:41:24;;;;;;;33.20;21.57;;;;;;;10.12;69.51;97367.28;5068232;28;20571;-79
2023/04/08 07:43:51;;;;;;;36.70;22.93;;;;;;;10.11;69.90;97368.19;5049839;28;20631;-78
2023/04/08 07:46:19;;;;;;;31.77;20.00;;;;;;;10.15;69.47;97346.47;5051034;28;20212;-80
2023/04/08 07:48:46;;;;;;;31.30;19.37;;;;;;;10.02;69.09;97329.69;5067831;28;20200;-82
2023/04/08 07:51:14;;;;;;;37.00;20.43;;;;;;;10.28;69.60;97364.03;5068463;28;20739;-80
2023/04/08 07:53:41;;;;;;;28.57;19.20;;;;;;;10.31;68.97;97332.84;5049920;28;20197;-78
2023/04/08 07:56:13;;;;;;;32.07;21.63;;;;;;;10.35;68.93;97355.13;5068432;28;20194;-78
2023/04/08 07:58:41;;;;;;;31.83;20.70;;;;;;;10.64;68.30;97343.59;5083266;28;20932;-78
2023/04/08 08:01:22;;;;;;;36.67;21.37;;;;;;;10.52;68.49;97347.53;5049689;28;20197;-80
2023/04/08 08:03:50;;;;;;;32.93;20.83;;;;;;;10.64;68.09;97343.59;5050489;28;20379;-84
2023/04/08 08:06:19;;;;;;;35.23;21.90;;;;;;;10.07;69.78;97318.28;5083138;28;20216;-83
2023/04/08 08:08:47;;;;;;;31.20;19.73;;;;;;;10.34;68.90;97356.03;5049478;28;20212;-82
2023/04/08 08:11:14;;;;;;;27.43;17.67;;;;;;;10.51;68.79;97356.19;5051095;28;20213;-83
2023/04/08 08:13:41;;;;;;;23.17;16.60;;;;;;;10.32;68.42;97333.69;5033806;28;20706;-83
2023/04/08 08:16:10;;;;;;;25.63;18.40;;;;;;;10.79;67.83;97355.91;5049952;28;20185;-80
2023/04/08 08:18:39;;;;;;;26.67;16.23;;;;;;;10.83;66.87;97346.25;5049771;28;20270;-82
2023/04/08 08:21:07;;;;;;;25.10;16.30;;;;;;;11.24;65.94;97359.16;5033239;28;20719;-79
2023/04/08 08:23:34;;;;;;;23.70;16.43;;;;;;;11.40;64.16;97370.53;5067193;28;20228;-77
2023/04/08 08:26:03;;;;;;;19.43;14.20;;;;;;;11.69;63.94;97355.44;5083816;28;20186;-78
2023/04/08 08:28:31;;;;;;;17.60;12.93;;;;;;;11.75;62.30;97371.59;5067768;28;20191;-80
2023/04/08 08:30:58;;;;;;;24.23;14.60;;;;;;;12.01;61.64;97368.63;5067619;28;20261;-80
2023/04/08 08:33:25;;;;;;;18.20;13.87;;;;;;;12.27;60.64;97364.84;5067731;28;20190;-82
2023/04/08 08:35:54;;;;;;;19.87;12.70;;;;;;;12.42;59.88;97374.50;5033217;28;20685;-80
2023/04/08 08:38:21;;;;;;;17.07;12.73;;;;;;;12.70;59.03;97369.66;5067773;28;20191;-78
2023/04/08 08:41:29;;;;;;;17.10;12.13;;;;;;;12.75;59.08;97364.25;5066493;28;20248;-81
2023/04/08 08:44:14;;;;;;;19.53;13.17;;;;;;;12.91;58.60;97366.00;5065211;28;20255;-76
2023/04/08 08:46:43;;;;;;;21.10;14.80;;;;;;;12.92;58.35;97354.69;5052378;28;20723;-77
2023/04/08 08:49:11;;;;;;;16.13;12.00;;;;;;;12.69;59.52;97352.41;5086858;28;20199;-76
2023/04/08 08:51:45;;;;;;;19.30;12.47;;;;;;;11.77;61.44;97368.91;5087663;28;20198;-79
2023/04/08 08:54:14;;;;;;;16.47;11.90;;;;;;;11.87;61.29;97349.44;5068198;28;20195;-80
2023/04/08 08:56:42;;;;;;;17.00;13.23;;;;;;;11.73;60.63;97359.59;5087089;28;20191;-75
2023/04/08 08:59:09;;;;;;;17.27;12.83;;;;;;;12.17;59.07;97348.00;5086331;28;20191;-79
2023/04/08 09:01:39;;;;;;;17.07;12.30;;;;;;;12.28;59.84;97356.97;5086296;28;20242;-80
2023/04/08 09:04:18;;;;;;;15.13;11.10;;;;;;;12.62;58.14;97357.94;5086186;28;20748;-81
2023/04/08 09:06:49;;;;;;;15.47;11.37;;;;;;;12.41;58.25;97351.19;5086387;28;20298;-81
2023/04/08 09:09:17;;;;;;;16.70;11.97;;;;;;;12.47;58.35;97345.72;5076822;28;20671;-82
2023/04/08 09:11:46;;;;;;;12.90;10.67;;;;;;;12.85;56.55;97344.66;5065887;28;20237;-79
2023/04/08 09:14:21;;;;;;;21.57;11.97;;;;;;;13.04;56.54;97354.09;5067011;28;20195;-81
2023/04/08 09:16:48;;;;;;;17.03;12.00;;;;;;;12.91;57.11;97347.81;5067010;28;20286;-79
2023/04/08 09:19:16;;;;;;;19.03;14.10;;;;;;;12.96;56.88;97355.38;5032212;28;20190;-79
2023/04/08 09:21:43;;;;;;;17.00;13.57;;;;;;;13.00;57.18;97336.13;5066638;28;20223;-74
2023/04/08 09:24:27;;;;;;;15.33;12.17;;;;;;;13.32;56.40;97355.28;5066325;28;20218;-84
2023/04/08 09:26:55;;;;;;;19.10;12.87;;;;;;;13.27;56.46;97365.09;5067150;28;20283;-79
2023/04/08 09:29:23;;;;;;;17.20;13.00;;;;;;;13.20;55.36;97359.38;5073910;28;20227;-82
2023/04/08 09:32:00;;;;;;;18.53;13.07;;;;;;;12.98;56.22;97359.56;5069030;28;20245;-78
2023/04/08 09:34:29;;;;;;;17.53;12.93;;;;;;;12.93;56.58;97371.13;5069423;28;20183;-79
2023/04/08 09:36:56;;;;;;;14.67;11.20;;;;;;;12.70;56.88;97364.47;5067521;28;20682;-81
2023/04/08 09:39:23;;;;;;;15.97;12.00;;;;;;;12.52;57.54;97360.16;5068519;28;20285;-80
2023/04/08 09:41:51;;;;;;;17.27;13.30;;;;;;;12.79;57.20;97361.41;5086253;28;20192;-83
2023/04/08 09:44:20;;;;;;;25.00;12.57;;;;;;;13.06;57.25;97357.44;5051964;28;20231;-79
2023/04/08 09:47:03;;;;;;;18.43;12.57;;;;;;;13.11;56.95;97361.59;5101759;28;20580;-80
2023/04/08 09:49:39;;;;;;;14.73;11.50;;;;;;;13.10;56.96;97357.31;5080578;28;20290;-79
2023/04/08 09:52:15;;;;;;;19.57;13.70;;;;;;;13.04;57.60;97343.69;5066365;28;20227;-81
2023/04/08 09:55:00;;;;;;;15.93;11.40;;;;;;;13.21;56.88;97358.44;5048159;28;20325;-80
2023/04/08 09:57:40;;;;;;;13.63;11.10;;;;;;;12.83;58.72;97360.34;5066359;28;20196;-77
2023/04/08 10:00:16;;;;;;;16.57;10.80;;;;;;;13.02;57.62;97361.09;5068288;28;20218;-79
2023/04/08 10:03:00;;;;;;;12.70;10.90;;;;;;;12.80;58.21;97349.25;5047827;28;20233;-83
2023/04/08 10:05:29;;;;;;;17.10;12.37;;;;;;;12.71;57.98;97334.97;5066741;28;20192;-79
2023/04/08 10:07:57;;;;;;;17.93;11.73;;;;;;;12.66;59.13;97349.94;5065662;28;20270;-79
2023/04/08 10:10:26;;;;;;;17.33;12.70;;;;;;;12.99;58.33;97324.00;5065981;28;20790;-80
2023/04/08 10:12:54;;;;;;;12.90;10.73;;;;;;;12.61;57.83;97338.91;5065602;28;20198;-81
2023/04/08 10:15:26;;;;;;;18.13;12.60;;;;;;;12.86;58.54;97341.97;5065827;28;20199;-77
2023/04/08 10:17:54;;;;;;;15.37;12.17;;;;;;;12.88;58.11;97318.53;5072649;28;20208;-80
2023/04/08 10:20:37;;;;;;;14.27;10.23;;;;;;;13.06;57.53;97336.66;5086410;28;20199;-80
2023/04/08 10:23:06;;;;;;;14.47;11.30;;;;;;;13.04;56.96;97335.06;5086675;28;20239;-81
2023/04/08 10:25:35;;;;;;;15.67;11.37;;;;;;;13.07;57.95;97334.91;5086216;28;20192;-81
2023/04/08 10:28:22;;;;;;;14.33;10.93;;;;;;;13.24;56.58;97315.84;5068168;28;20637;-77
2023/04/08 10:30:50;;;;;;;14.77;10.53;;;;;;;13.32;56.18;97330.13;5086591;28;20370;-80
2023/04/08 10:33:26;;;;;;;12.83;9.83;;;;;;;13.33;55.88;97324.03;5088442;28;20199;-81
2023/04/08 10:35:55;;;;;;;13.00;9.77;;;;;;;13.30;56.23;97323.31;5090954;28;20191;-79
2023/04/08 10:38:22;;;;;;;16.47;11.50;;;;;;;13.46;56.38;97313.78;5090769;28;20260;-80
2023/04/08 10:40:50;;;;;;;13.80;10.00;;;;;;;13.06;57.28;97315.84;5072448;28;20199;-76
2023/04/08 10:43:17;;;;;;;12.53;9.87;;;;;;;13.40;56.35;97308.91;5072322;28;20231;-80
2023/04/08 10:45:45;;;;;;;11.93;9.17;;;;;;;13.05;56.69;97306.38;5090621;28;20206;-79
2023/04/08 10:48:19;;;;;;;14.10;9.83;;;;;;;12.99;57.08;97308.41;5090976;28;20641;-77
2023/04/08 10:50:56;;;;;;;12.27;9.33;;;;;;;12.94;56.42;97315.63;5090134;28;20187;-76
2023/04/08 10:53:43;;;;;;;12.47;8.40;;;;;;;12.85;56.83;97316.94;5072682;28;20217;-74
2023/04/08 10:56:14;;;;;;;11.13;9.17;;;;;;;12.49;57.51;97274.56;5090255;28;20660;-77
2023/04/08 10:58:48;;;;;;;10.53;9.20;;;;;;;12.85;55.62;97293.53;5090211;28;20191;-81
2023/04/08 11:01:16;;;;;;;12.13;9.77;;;;;;;13.04;56.29;97315.09;5055840;28;20204;-77
2023/04/08 11:03:44;;;;;;;11.17;9.10;;;;;;;13.06;55.12;97295.03;5090662;28;20308;-77
2023/04/08 11:06:11;;;;;;;11.70;9.10;;;;;;;13.44;54.23;97295.66;5096723;28;20201;-81
2023/04/08 11:08:38;;;;;;;15.57;9.70;;;;;;;13.70;52.97;97286.47;5090253;28;20190;-80
2023/04/08 11:11:07;;;;;;;9.17;8.07;;;;;;;13.85;53.36;97301.25;5090039;28;20192;-76
2023/04/08 11:13:37;;;;;;;12.13;8.97;;;;;;;13.54;53.68;97280.41;5090526;28;20203;-79
2023/04/08 11:16:07;;;;;;;11.43;9.10;;;;;;;13.67;53.33;97292.69;5090095;28;20696;-81
2023/04/08 11:18:44;;;;;;;9.93;7.90;;;;;;;13.58;53.35;97287.13;5090559;28;20721;-80
2023/04/08 11:21:12;;;;;;;11.63;9.03;;;;;;;13.45;53.88;97275.69;5089052;28;20223;-81
2023/04/08 11:23:41;;;;;;;11.23;9.23;;;;;;;13.64;53.20;97286.81;5090601;28;20227;-82
2023/04/08 11:26:09;;;;;;;11.00;8.07;;;;;;;13.79;52.08;97275.53;5090925;28;20192;-82
2023/04/08 11:28:37;;;;;;;13.77;9.20;;;;;;;14.23;51.39;97275.69;5071833;28;20192;-77
2023/04/08 11:31:05;;;;;;;9.10;7.73;;;;;;;14.21;50.39;97275.78;5089392;28;20675;-82
2023/04/08 11:33:33;;;;;;;8.83;7.70;;;;;;;13.61;51.44;97271.34;5089566;28;20206;-82